Time;durP1;ratioP1;P1;durP2;ratioP2;P2;SDS_P1;SDS_P2;PMS_P1;PMS_P2;Temp;Humidity;BMP_temperature;BMP_pressure;BME280_temperature;BME280_humidity;BME280_pressure;Samples;Min_cycle;Max_cycle;Signal;HPM_P1;HPM_P2
2023/12/12 00:01:21;;;;;;;45.45;24.55;;;;;;;4.89;63.60;94685.69;5106284;28;20110;-74
2023/12/12 00:03:46;;;;;;;49.65;27.25;;;;;;;4.88;63.66;94675.97;5104590;28;20122;-74
2023/12/12 00:06:11;;;;;;;50.65;28.50;;;;;;;4.86;63.84;94669.38;5106432;28;20106;-76
2023/12/12 00:08:37;;;;;;;53.28;29.20;;;;;;;4.81;63.85;94651.50;5105686;28;20024;-75
2023/12/12 00:11:02;;;;;;;55.20;29.80;;;;;;;4.91;63.68;94649.84;5106382;28;20562;-76
2023/12/12 00:13:28;;;;;;;53.45;30.27;;;;;;;4.94;63.40;94665.41;5105430;28;20051;-76
2023/12/12 00:15:54;;;;;;;56.15;31.25;;;;;;;4.92;63.63;94644.00;5105959;28;20046;-75
2023/12/12 00:18:20;;;;;;;57.38;31.67;;;;;;;4.71;64.56;94652.41;5104840;28;20027;-74
2023/12/12 00:20:45;;;;;;;53.85;31.25;;;;;;;4.65;64.56;94638.47;5104982;28;20020;-75
2023/12/12 00:23:10;;;;;;;53.78;30.23;;;;;;;4.68;64.66;94666.84;5105173;28;20039;-75
2023/12/12 00:25:36;;;;;;;52.55;30.90;;;;;;;4.71;64.48;94688.59;5104989;28;20102;-75
2023/12/12 00:28:01;;;;;;;51.60;29.33;;;;;;;4.78;64.54;94701.34;5106599;28;20104;-76
2023/12/12 00:30:26;;;;;;;55.42;31.13;;;;;;;4.86;64.35;94708.25;5105061;28;20024;-75
2023/12/12 00:32:52;;;;;;;53.47;31.67;;;;;;;4.87;64.15;94684.53;5106211;28;20038;-74
2023/12/12 00:35:17;;;;;;;54.20;31.55;;;;;;;4.87;64.39;94679.84;5105646;28;20054;-74
2023/12/12 00:37:43;;;;;;;49.47;30.88;;;;;;;4.92;64.00;94695.75;5105599;28;20066;-74
2023/12/12 00:40:09;;;;;;;55.72;31.10;;;;;;;4.93;63.97;94694.59;5106282;28;20102;-74
2023/12/12 00:42:35;;;;;;;49.58;31.02;;;;;;;4.94;64.08;94685.25;5104519;28;20077;-76
2023/12/12 00:45:00;;;;;;;58.92;32.65;;;;;;;4.99;64.05;94678.56;5106581;28;20027;-75
2023/12/12 00:47:26;;;;;;;54.78;31.40;;;;;;;4.90;64.05;94670.88;5104811;28;20437;-75
2023/12/12 00:49:51;;;;;;;51.15;30.13;;;;;;;4.95;64.19;94675.88;5106147;28;20027;-76
2023/12/12 00:52:16;;;;;;;51.80;30.20;;;;;;;5.00;64.09;94696.47;5103781;28;20398;-75
2023/12/12 00:54:42;;;;;;;50.47;30.73;;;;;;;5.04;63.82;94697.16;5105570;28;20031;-75
2023/12/12 00:57:07;;;;;;;53.47;29.45;;;;;;;5.02;64.07;94696.81;5105942;28;20039;-76
2023/12/12 00:59:32;;;;;;;57.10;29.52;;;;;;;5.02;63.96;94692.13;5104801;28;20072;-75
2023/12/12 01:01:58;;;;;;;54.40;28.38;;;;;;;5.05;63.91;94694.06;5106658;28;20065;-75
2023/12/12 01:04:23;;;;;;;47.38;26.90;;;;;;;5.11;63.61;94693.63;5103845;28;20024;-76
2023/12/12 01:06:48;;;;;;;50.42;28.70;;;;;;;5.20;63.54;94707.50;5106798;28;20024;-75
2023/12/12 01:09:14;;;;;;;54.70;29.77;;;;;;;5.13;63.47;94713.81;5108457;28;20039;-75
2023/12/12 01:11:40;;;;;;;46.45;27.50;;;;;;;5.14;63.73;94714.59;5109123;28;20057;-75
2023/12/12 01:14:05;;;;;;;43.17;25.88;;;;;;;5.23;63.29;94723.81;5109117;28;20432;-74
2023/12/12 01:16:31;;;;;;;43.85;24.95;;;;;;;5.23;63.42;94712.94;5108395;28;20031;-76
2023/12/12 01:18:56;;;;;;;40.70;22.58;;;;;;;5.23;63.21;94709.44;5109815;28;20034;-76
2023/12/12 01:21:22;;;;;;;40.30;23.83;;;;;;;5.22;63.19;94700.47;5108068;28;20092;-75
2023/12/12 01:23:51;;;;;;;40.80;22.00;;;;;;;5.18;63.17;94694.28;5110003;28;20032;-76
2023/12/12 01:26:19;;;;;;;37.58;21.95;;;;;;;5.18;63.32;94712.59;5106583;28;20044;-75
2023/12/12 01:28:44;;;;;;;39.00;21.92;;;;;;;5.21;63.14;94722.69;5109302;28;20106;-74
2023/12/12 01:31:09;;;;;;;41.65;22.23;;;;;;;5.22;63.01;94714.13;5109046;28;20471;-74
2023/12/12 01:33:35;;;;;;;33.63;20.02;;;;;;;5.18;63.12;94704.44;5108130;27;20043;-74
2023/12/12 01:36:00;;;;;;;36.35;21.00;;;;;;;5.21;62.87;94698.91;5109083;28;20028;-75
2023/12/12 01:38:26;;;;;;;36.75;20.65;;;;;;;5.14;62.83;94690.06;5107696;27;20028;-75
2023/12/12 01:40:51;;;;;;;31.77;19.80;;;;;;;5.11;62.90;94682.72;5109361;28;20473;-75
2023/12/12 01:43:23;;;;;;;34.03;20.10;;;;;;;5.10;62.75;94676.47;5107419;28;20036;-75
2023/12/12 01:45:49;;;;;;;34.05;19.25;;;;;;;5.08;62.75;94670.66;5109057;28;20023;-75
2023/12/12 01:48:14;;;;;;;31.95;19.40;;;;;;;5.01;62.85;94676.97;5107969;28;20031;-74
2023/12/12 01:50:40;;;;;;;34.55;20.50;;;;;;;5.05;62.95;94682.41;5108336;28;20069;-75
2023/12/12 01:53:05;;;;;;;33.60;19.48;;;;;;;5.05;62.96;94680.44;5107438;28;20050;-75
2023/12/12 01:55:31;;;;;;;34.67;19.80;;;;;;;5.09;62.61;94682.34;5107819;28;20023;-76
2023/12/12 01:57:57;;;;;;;31.35;18.25;;;;;;;5.03;62.78;94682.78;5109602;28;20036;-75
2023/12/12 02:00:22;;;;;;;36.00;21.23;;;;;;;5.00;62.56;94688.28;5106977;28;20166;-76
2023/12/12 02:02:48;;;;;;;40.53;21.63;;;;;;;5.03;62.11;94690.19;5108413;28;20061;-77
2023/12/12 02:05:14;;;;;;;38.80;21.58;;;;;;;4.94;62.41;94692.63;5107288;28;20024;-76
2023/12/12 02:07:40;;;;;;;37.03;22.00;;;;;;;4.94;62.37;94703.53;5107028;28;20481;-75
2023/12/12 02:10:06;;;;;;;36.88;22.38;;;;;;;4.83;62.39;94692.75;5108082;28;20030;-75
2023/12/12 02:12:32;;;;;;;36.80;22.95;;;;;;;4.78;62.59;94674.91;5106099;28;20223;-76
2023/12/12 02:14:58;;;;;;;35.58;22.95;;;;;;;4.75;62.82;94691.25;5108475;28;20024;-75
2023/12/12 02:17:23;;;;;;;39.20;24.17;;;;;;;4.76;62.86;94692.84;5105259;28;20027;-75
2023/12/12 02:19:49;;;;;;;43.90;23.48;;;;;;;4.80;62.42;94693.53;5108865;28;20032;-75
2023/12/12 02:22:14;;;;;;;39.65;23.67;;;;;;;4.77;62.52;94695.13;5106683;28;20032;-75
2023/12/12 02:24:39;;;;;;;41.58;24.52;;;;;;;4.83;62.68;94714.53;5108538;28;20462;-75
2023/12/12 02:27:05;;;;;;;43.05;24.75;;;;;;;4.75;62.79;94713.81;5107359;28;20034;-76
2023/12/12 02:29:30;;;;;;;38.45;22.45;;;;;;;4.82;62.68;94715.72;5107349;28;20034;-75
2023/12/12 02:31:56;;;;;;;42.25;23.83;;;;;;;4.74;62.97;94709.56;5107814;28;20032;-75
2023/12/12 02:34:21;;;;;;;45.88;23.40;;;;;;;4.66;63.05;94699.16;5106685;28;20027;-75
2023/12/12 02:36:47;;;;;;;38.72;23.23;;;;;;;4.70;63.04;94708.84;5106717;28;20476;-76
2023/12/12 02:39:13;;;;;;;38.92;23.35;;;;;;;4.78;62.87;94720.44;5106861;28;20473;-75
2023/12/12 02:41:38;;;;;;;37.80;22.35;;;;;;;4.88;62.73;94724.22;5107752;28;20039;-75
2023/12/12 02:44:04;;;;;;;35.97;21.88;;;;;;;4.83;62.73;94722.72;5106802;28;20035;-74
2023/12/12 02:46:30;;;;;;;33.10;20.08;;;;;;;4.78;62.85;94720.44;5107452;28;20062;-75
2023/12/12 02:48:55;;;;;;;36.90;19.95;;;;;;;4.85;62.61;94730.47;5107529;28;20457;-74
2023/12/12 02:51:20;;;;;;;30.33;17.95;;;;;;;4.85;62.80;94722.28;5106682;28;20024;-74
2023/12/12 02:53:46;;;;;;;32.17;18.98;;;;;;;4.81;62.64;94719.59;5107651;27;20429;-76
2023/12/12 02:56:11;;;;;;;30.00;17.15;;;;;;;4.87;62.64;94720.69;5106321;28;20027;-75
2023/12/12 02:58:36;;;;;;;28.45;16.50;;;;;;;4.94;62.35;94701.59;5107832;28;20024;-75
2023/12/12 03:01:02;;;;;;;30.48;15.93;;;;;;;4.91;62.52;94702.38;5104852;28;20027;-75
2023/12/12 03:03:28;;;;;;;26.52;16.48;;;;;;;4.92;62.52;94695.75;5106963;28;20036;-75
2023/12/12 03:05:53;;;;;;;24.48;15.60;;;;;;;4.91;62.41;94699.66;5106975;28;20024;-75
2023/12/12 03:08:18;;;;;;;25.95;15.20;;;;;;;4.88;62.32;94705.94;5106706;28;20409;-77
2023/12/12 03:10:46;;;;;;;25.25;14.30;;;;;;;4.92;62.52;94708.59;5106033;28;20024;-76
2023/12/12 03:13:12;;;;;;;24.85;15.32;;;;;;;4.84;62.78;94715.31;5106006;28;20040;-76
2023/12/12 03:15:37;;;;;;;26.58;14.98;;;;;;;4.83;62.81;94703.66;5107093;28;20047;-75
2023/12/12 03:18:03;;;;;;;24.27;14.35;;;;;;;4.82;62.67;94709.47;5106116;28;20161;-75
2023/12/12 03:20:28;;;;;;;25.98;14.57;;;;;;;4.87;62.83;94695.41;5106926;28;20027;-75
2023/12/12 03:22:54;;;;;;;23.75;14.40;;;;;;;4.90;62.75;94692.66;5106059;28;20035;-75
2023/12/12 03:25:19;;;;;;;24.92;14.18;;;;;;;4.93;62.63;94708.22;5106537;28;20028;-75
2023/12/12 03:27:45;;;;;;;26.92;16.17;;;;;;;4.95;62.90;94705.06;5106598;28;20379;-76
2023/12/12 03:30:11;;;;;;;28.42;15.15;;;;;;;4.77;62.79;94667.13;5105521;28;20024;-75
2023/12/12 03:32:36;;;;;;;24.35;14.02;;;;;;;5.00;62.79;94693.72;5106903;28;20085;-76
2023/12/12 03:35:02;;;;;;;23.90;13.80;;;;;;;5.03;62.69;94690.94;5105732;28;20024;-76
2023/12/12 03:37:28;;;;;;;21.52;13.35;;;;;;;4.94;62.83;94676.28;5106697;28;20027;-75
2023/12/12 03:39:53;;;;;;;21.58;13.23;;;;;;;5.02;62.86;94677.75;5105718;28;20035;-75
2023/12/12 03:42:19;;;;;;;26.40;13.35;;;;;;;5.11;62.61;94688.16;5106508;28;20470;-75
2023/12/12 03:44:44;;;;;;;23.02;14.45;;;;;;;5.10;62.72;94681.16;5105978;28;20122;-75
2023/12/12 03:47:09;;;;;;;23.90;14.70;;;;;;;5.07;62.74;94686.25;5106131;28;20035;-75
2023/12/12 03:49:35;;;;;;;24.92;14.05;;;;;;;5.12;62.91;94687.75;5106318;28;20461;-75
2023/12/12 03:52:00;;;;;;;24.35;15.43;;;;;;;5.15;62.74;94691.59;5105417;28;20172;-75
2023/12/12 03:54:26;;;;;;;26.02;16.15;;;;;;;5.15;62.75;94697.81;5106954;28;20103;-74
2023/12/12 03:56:51;;;;;;;24.60;16.65;;;;;;;5.19;62.80;94697.78;5105254;28;20522;-75
2023/12/12 03:59:16;;;;;;;31.02;19.33;;;;;;;5.21;62.45;94689.97;5105325;28;20094;-76
2023/12/12 04:01:47;;;;;;;35.35;19.63;;;;;;;5.21;62.60;94692.69;5105483;28;20063;-75
2023/12/12 04:04:12;;;;;;;37.08;21.55;;;;;;;5.25;62.41;94696.16;5106008;28;20107;-75
2023/12/12 04:06:47;;;;;;;37.42;21.92;;;;;;;5.21;62.38;94698.16;5105909;28;20165;-75
2023/12/12 04:09:13;;;;;;;36.45;21.42;;;;;;;5.23;62.23;94709.44;5105795;28;20098;-76
2023/12/12 04:11:38;;;;;;;42.72;21.55;;;;;;;5.17;62.58;94716.50;5105065;28;20158;-75
2023/12/12 04:14:04;;;;;;;33.40;21.92;;;;;;;5.16;62.54;94726.63;5104901;28;20485;-76
2023/12/12 04:16:29;;;;;;;40.67;21.63;;;;;;;5.10;62.62;94727.47;5106525;28;20348;-74
2023/12/12 04:18:54;;;;;;;35.38;21.90;;;;;;;5.11;62.71;94726.31;5105632;28;20024;-76
2023/12/12 04:21:20;;;;;;;41.13;25.05;;;;;;;5.13;62.52;94732.13;5105911;28;20493;-75
2023/12/12 04:23:45;;;;;;;34.97;21.92;;;;;;;5.14;62.63;94741.84;5105777;28;20035;-75
2023/12/12 04:26:12;;;;;;;38.17;22.35;;;;;;;5.13;63.03;94745.75;5105780;28;20102;-76
2023/12/12 04:28:38;;;;;;;37.58;22.00;;;;;;;5.11;62.80;94729.81;5106215;28;20115;-75
2023/12/12 04:31:03;;;;;;;36.60;22.60;;;;;;;5.12;62.89;94741.47;5105236;28;20106;-75
2023/12/12 04:33:29;;;;;;;33.15;21.35;;;;;;;5.11;62.85;94737.22;5106316;28;20489;-76
2023/12/12 04:35:54;;;;;;;38.47;22.35;;;;;;;5.12;63.08;94744.22;5103655;28;20023;-76
2023/12/12 04:38:19;;;;;;;38.40;22.13;;;;;;;5.11;63.11;94748.13;5106553;28;20023;-76
2023/12/12 04:40:45;;;;;;;37.25;23.30;;;;;;;5.14;62.76;94753.50;5107628;28;20026;-76
2023/12/12 04:43:10;;;;;;;37.50;21.70;;;;;;;5.10;62.82;94749.28;5109689;28;20053;-76
2023/12/12 04:45:36;;;;;;;38.45;23.35;;;;;;;5.10;62.83;94750.03;5109811;28;20028;-76
2023/12/12 04:48:01;;;;;;;43.40;24.20;;;;;;;5.12;63.12;94752.38;5109415;28;20393;-75
2023/12/12 04:50:26;;;;;;;35.90;23.25;;;;;;;5.08;62.88;94746.97;5110231;28;20031;-74
2023/12/12 04:52:52;;;;;;;39.38;21.63;;;;;;;5.17;62.63;94752.72;5108744;28;20280;-76
2023/12/12 04:55:17;;;;;;;33.55;22.00;;;;;;;5.15;62.81;94759.72;5108954;28;20027;-76
2023/12/12 04:57:43;;;;;;;32.70;21.90;;;;;;;5.15;63.09;94762.44;5108516;28;20023;-76
2023/12/12 05:00:13;;;;;;;32.28;19.83;;;;;;;5.13;62.52;94756.66;5109676;28;20024;-75
2023/12/12 05:02:39;;;;;;;35.45;20.85;;;;;;;5.15;62.79;94762.44;5107637;28;20085;-75
2023/12/12 05:05:05;;;;;;;33.25;19.20;;;;;;;5.16;62.76;94766.72;5108733;28;20032;-76
2023/12/12 05:07:30;;;;;;;28.60;18.33;;;;;;;5.16;62.82;94762.06;5109717;28;20461;-75
2023/12/12 05:09:55;;;;;;;32.72;18.20;;;;;;;5.12;62.88;94776.91;5108212;28;20080;-75
2023/12/12 05:12:21;;;;;;;32.55;18.35;;;;;;;5.18;62.72;94778.78;5109760;28;20079;-76
2023/12/12 05:14:47;;;;;;;27.15;16.73;;;;;;;5.20;62.70;94779.13;5108121;28;20520;-76
2023/12/12 05:17:12;;;;;;;30.48;18.17;;;;;;;5.19;62.42;94776.81;5109516;28;20023;-76
2023/12/12 05:19:38;;;;;;;28.48;16.27;;;;;;;5.18;62.78;94783.47;5107363;28;20389;-76
2023/12/12 05:22:03;;;;;;;26.50;16.98;;;;;;;5.18;62.43;94784.22;5108695;28;20028;-76
2023/12/12 05:24:28;;;;;;;22.65;14.18;;;;;;;5.20;62.59;94790.03;5107431;28;20085;-76
2023/12/12 05:26:54;;;;;;;27.13;15.77;;;;;;;5.22;62.41;94790.44;5108127;28;20035;-75
2023/12/12 05:29:19;;;;;;;28.30;14.93;;;;;;;5.27;62.37;94791.91;5108038;28;20043;-75
2023/12/12 05:31:45;;;;;;;25.08;14.50;;;;;;;5.22;62.54;94781.47;5106351;28;20080;-75
2023/12/12 05:34:10;;;;;;;23.13;14.55;;;;;;;5.31;62.32;94779.03;5109658;28;20304;-75
2023/12/12 05:36:36;;;;;;;22.50;13.82;;;;;;;5.35;62.42;94787.94;5108513;28;20422;-76
2023/12/12 05:39:01;;;;;;;22.50;15.35;;;;;;;5.35;62.36;94787.16;5108875;28;20422;-75
2023/12/12 05:41:27;;;;;;;23.08;14.23;;;;;;;5.37;62.49;94782.84;5106985;28;20015;-76
2023/12/12 05:43:52;;;;;;;23.85;12.35;;;;;;;5.49;62.11;94776.84;5106763;28;20502;-75
2023/12/12 05:46:18;;;;;;;19.15;11.15;;;;;;;5.50;61.76;94780.34;5108948;28;20089;-75
2023/12/12 05:48:43;;;;;;;21.27;11.38;;;;;;;5.55;62.10;94785.38;5107597;28;20020;-76
2023/12/12 05:51:09;;;;;;;15.75;9.45;;;;;;;5.58;61.86;94790.78;5109185;28;20374;-75
2023/12/12 05:53:34;;;;;;;14.98;9.02;;;;;;;5.61;61.33;94791.91;5107253;28;20058;-75
2023/12/12 05:55:59;;;;;;;14.98;8.05;;;;;;;5.69;61.63;94795.34;5108867;28;20481;-75
2023/12/12 05:58:25;;;;;;;17.63;9.40;;;;;;;5.71;61.47;94798.44;5102906;28;20028;-74
2023/12/12 06:00:51;;;;;;;19.55;11.43;;;;;;;5.71;61.34;94807.38;5086291;28;20032;-75
2023/12/12 06:03:17;;;;;;;13.70;8.00;;;;;;;5.75;61.19;94796.44;5094710;28;20032;-75
2023/12/12 06:05:43;;;;;;;12.57;7.57;;;;;;;5.79;60.83;94795.22;5107059;28;20055;-76
2023/12/12 06:08:09;;;;;;;14.07;7.10;;;;;;;5.96;60.33;94787.97;5108933;28;20070;-76
2023/12/12 06:10:34;;;;;;;13.77;7.07;;;;;;;6.00;60.20;94785.22;5107003;28;20016;-75
2023/12/12 06:12:59;;;;;;;11.65;7.35;;;;;;;6.05;59.86;94774.63;5108548;28;20048;-74
2023/12/12 06:15:25;;;;;;;10.60;7.18;;;;;;;6.05;59.82;94768.38;5100772;28;20027;-75
2023/12/12 06:17:50;;;;;;;13.82;8.13;;;;;;;6.10;59.89;94765.97;5088137;28;20115;-74
2023/12/12 06:20:15;;;;;;;13.18;7.50;;;;;;;6.05;59.88;94769.16;5095622;28;20023;-75
2023/12/12 06:22:41;;;;;;;13.05;7.72;;;;;;;6.02;60.06;94766.47;5107057;28;20024;-75
2023/12/12 06:25:06;;;;;;;12.18;7.00;;;;;;;6.05;60.06;94782.03;5097184;28;20024;-75
2023/12/12 06:27:33;;;;;;;17.38;7.15;;;;;;;6.05;60.11;94785.53;5086375;28;20028;-76
2023/12/12 06:29:58;;;;;;;14.73;7.65;;;;;;;6.11;59.85;94783.88;5086624;28;20032;-75
2023/12/12 06:32:23;;;;;;;12.90;7.15;;;;;;;6.15;60.04;94792.03;5086712;28;20031;-76
2023/12/12 06:34:49;;;;;;;22.00;13.48;;;;;;;6.18;59.99;94793.16;5087775;28;20038;-75
2023/12/12 06:37:14;;;;;;;30.85;17.38;;;;;;;6.21;59.92;94793.13;5097522;28;20501;-75
2023/12/12 06:39:40;;;;;;;29.65;18.95;;;;;;;6.28;59.87;94800.44;5107128;28;20027;-74
2023/12/12 06:42:05;;;;;;;36.45;20.20;;;;;;;6.32;59.93;94795.69;5107771;28;20020;-75
2023/12/12 06:44:30;;;;;;;33.67;20.23;;;;;;;6.30;59.72;94798.81;5106187;28;20496;-75
2023/12/12 06:46:56;;;;;;;35.03;22.40;;;;;;;6.32;59.76;94799.19;5106529;28;20028;-75
2023/12/12 06:49:21;;;;;;;41.95;20.95;;;;;;;6.33;59.69;94811.66;5106415;28;20030;-74
2023/12/12 06:51:47;;;;;;;35.30;21.75;;;;;;;6.37;59.25;94809.66;5106342;28;20023;-74
2023/12/12 06:54:12;;;;;;;44.45;24.65;;;;;;;6.41;59.53;94827.94;5106794;28;20028;-75
2023/12/12 06:56:37;;;;;;;41.35;26.02;;;;;;;6.41;59.74;94827.94;5106984;28;20123;-75
2023/12/12 06:59:05;;;;;;;38.47;24.90;;;;;;;6.38;59.84;94833.03;5107114;28;20084;-76
2023/12/12 07:01:30;;;;;;;41.25;25.08;;;;;;;6.38;59.70;94837.72;5106046;28;20092;-76
2023/12/12 07:03:57;;;;;;;39.17;24.45;;;;;;;6.40;59.89;94835.34;5106562;28;20485;-75
2023/12/12 07:06:23;;;;;;;31.13;20.02;;;;;;;6.47;59.65;94829.00;5106173;28;20027;-82
2023/12/12 07:08:48;;;;;;;32.45;19.55;;;;;;;6.52;59.66;94839.47;5106088;28;20484;-75
2023/12/12 07:11:15;;;;;;;36.05;19.10;;;;;;;6.54;59.38;94831.66;5106141;28;20102;-73
2023/12/12 07:13:40;;;;;;;31.60;18.38;;;;;;;6.62;59.33;94841.28;5106875;28;20047;-76
2023/12/12 07:16:08;;;;;;;28.85;17.50;;;;;;;6.65;59.27;94841.22;5106369;28;20097;-82
2023/12/12 07:18:34;;;;;;;26.75;17.38;;;;;;;6.70;59.09;94845.44;5106487;28;20058;-74
2023/12/12 07:21:00;;;;;;;23.15;15.80;;;;;;;6.74;59.20;94846.16;5107156;28;20433;-74
2023/12/12 07:23:25;;;;;;;21.98;14.43;;;;;;;6.78;59.08;94846.88;5105761;28;20031;-74
2023/12/12 07:25:50;;;;;;;24.02;15.45;;;;;;;6.81;58.82;94845.28;5106864;28;20028;-75
2023/12/12 07:28:16;;;;;;;26.63;15.18;;;;;;;6.83;58.79;94832.75;5105655;28;20020;-74
2023/12/12 07:30:42;;;;;;;25.00;15.63;;;;;;;6.90;58.83;94845.53;5106876;28;20537;-74
2023/12/12 07:33:08;;;;;;;24.50;13.82;;;;;;;6.95;58.67;94852.50;5106208;28;20028;-74
2023/12/12 07:35:33;;;;;;;25.13;14.93;;;;;;;7.04;58.42;94853.47;5106422;28;20493;-75
2023/12/12 07:38:01;;;;;;;27.95;15.85;;;;;;;7.10;58.32;94853.78;5106445;28;20027;-76
2023/12/12 07:40:26;;;;;;;24.65;14.82;;;;;;;7.08;58.40;94840.53;5105713;28;20028;-76
2023/12/12 07:42:51;;;;;;;25.42;14.82;;;;;;;7.22;58.08;94846.94;5106477;28;20020;-76
2023/12/12 07:45:18;;;;;;;23.35;14.95;;;;;;;7.19;58.20;94837.63;5105361;28;20080;-76
2023/12/12 07:47:43;;;;;;;24.10;13.60;;;;;;;7.30;58.19;94845.66;5106872;28;20042;-77
2023/12/12 07:50:09;;;;;;;26.42;15.20;;;;;;;7.39;58.05;94835.69;5105443;28;20020;-76
2023/12/12 07:52:34;;;;;;;28.70;15.98;;;;;;;7.41;58.00;94843.50;5105180;28;20038;-76
2023/12/12 07:55:00;;;;;;;25.00;14.10;;;;;;;7.45;58.10;94846.91;5106284;28;20569;-77
2023/12/12 07:57:25;;;;;;;24.60;13.55;;;;;;;7.52;57.88;94848.78;5106058;28;20054;-77
2023/12/12 07:59:50;;;;;;;24.05;13.48;;;;;;;7.63;57.83;94847.38;5106182;28;20099;-78
2023/12/12 08:02:16;;;;;;;21.75;12.05;;;;;;;7.69;57.40;94848.44;5105431;28;20034;-76
2023/12/12 08:04:41;;;;;;;22.27;11.32;;;;;;;7.77;57.18;94849.06;5106177;28;20038;-76
2023/12/12 08:07:07;;;;;;;18.27;9.60;;;;;;;7.90;56.92;94843.72;5105168;28;20114;-77
2023/12/12 08:09:32;;;;;;;15.45;8.27;;;;;;;8.02;56.95;94843.09;5105159;28;20433;-76
2023/12/12 08:11:57;;;;;;;15.65;6.90;;;;;;;8.17;56.59;94841.59;5105713;28;20106;-77
2023/12/12 08:14:23;;;;;;;16.25;6.88;;;;;;;8.34;55.85;94836.19;5105879;28;20066;-76
2023/12/12 08:16:48;;;;;;;9.30;5.28;;;;;;;8.44;55.52;94846.16;5105726;28;20341;-77
2023/12/12 08:19:15;;;;;;;13.40;6.45;;;;;;;8.51;55.38;94835.03;5105816;28;20461;-77
2023/12/12 08:21:40;;;;;;;13.30;6.85;;;;;;;8.54;55.24;94842.41;5106215;28;20038;-76
2023/12/12 08:24:06;;;;;;;12.27;6.18;;;;;;;8.55;55.11;94843.97;5105242;28;20455;-75
2023/12/12 08:26:42;;;;;;;10.05;5.35;;;;;;;8.62;54.89;94838.31;5105068;28;20110;-77
2023/12/12 08:29:08;;;;;;;8.90;5.63;;;;;;;8.74;54.39;94837.63;5103824;28;20415;-77
2023/12/12 08:31:34;;;;;;;11.05;6.00;;;;;;;8.81;54.32;94836.69;5105841;28;20084;-75
2023/12/12 08:34:01;;;;;;;11.65;5.75;;;;;;;8.85;54.24;94833.88;5106133;28;20024;-77
2023/12/12 08:36:27;;;;;;;9.20;5.05;;;;;;;8.90;53.81;94834.13;5104141;28;20493;-76
2023/12/12 08:38:53;;;;;;;16.45;5.63;;;;;;;8.92;53.87;94833.69;5105838;28;20073;-76
2023/12/12 08:41:20;;;;;;;16.63;7.07;;;;;;;8.99;53.43;94828.81;5104726;28;20085;-76
2023/12/12 08:43:45;;;;;;;15.48;5.97;;;;;;;9.01;53.22;94842.09;5105991;28;20537;-77
2023/12/12 08:46:11;;;;;;;16.50;7.32;;;;;;;9.07;53.13;94839.63;5105112;28;20023;-76
2023/12/12 08:48:36;;;;;;;16.58;7.90;;;;;;;9.21;53.01;94834.53;5105920;28;20032;-76
2023/12/12 08:51:02;;;;;;;12.70;5.70;;;;;;;9.27;52.44;94838.31;5105374;28;20026;-78
2023/12/12 08:53:27;;;;;;;14.75;5.85;;;;;;;9.44;52.23;94835.53;5105592;28;20111;-77
2023/12/12 08:55:54;;;;;;;10.57;5.38;;;;;;;9.70;51.54;94834.47;5105557;28;20024;-77
2023/12/12 08:58:21;;;;;;;11.95;5.43;;;;;;;9.98;51.43;94824.66;5104955;28;20028;-77
2023/12/12 09:00:46;;;;;;;10.75;4.72;;;;;;;10.38;49.79;94821.59;5106314;28;20027;-76
2023/12/12 09:03:12;;;;;;;12.68;4.30;;;;;;;10.45;49.47;94823.34;5104333;28;20409;-76
2023/12/12 09:05:38;;;;;;;7.20;4.95;;;;;;;10.48;48.97;94825.19;5105687;28;20153;-76
2023/12/12 09:08:03;;;;;;;10.07;4.75;;;;;;;10.40;49.20;94829.38;5104801;28;20028;-76
2023/12/12 09:10:28;;;;;;;11.73;4.22;;;;;;;10.41;48.95;94831.69;5105904;28;20028;-77
2023/12/12 09:12:54;;;;;;;6.38;3.45;;;;;;;10.45;48.91;94832.34;5105270;28;20127;-77
2023/12/12 09:15:19;;;;;;;12.93;4.20;;;;;;;10.43;49.04;94832.00;5105289;28;20039;-77
2023/12/12 09:17:45;;;;;;;11.35;4.60;;;;;;;10.40;49.18;94838.41;5104510;28;20106;-77
2023/12/12 09:20:12;;;;;;;11.63;5.10;;;;;;;10.32;49.48;94839.78;5104869;28;20019;-77
2023/12/12 09:22:37;;;;;;;14.90;5.13;;;;;;;10.35;49.38;94849.94;5105872;28;20028;-76
2023/12/12 09:25:03;;;;;;;11.00;4.47;;;;;;;10.36;49.65;94843.22;5104631;28;20073;-76
2023/12/12 09:27:28;;;;;;;6.50;3.10;;;;;;;10.48;48.97;94847.19;5107465;28;20485;-77
2023/12/12 09:29:53;;;;;;;9.13;2.67;;;;;;;10.53;48.36;94846.66;5108348;28;20405;-77
2023/12/12 09:32:19;;;;;;;5.60;2.35;;;;;;;10.51;48.80;94835.34;5108797;28;20020;-76
2023/12/12 09:34:44;;;;;;;3.47;2.15;;;;;;;10.62;48.39;94825.56;5108806;28;20016;-78
2023/12/12 09:37:09;;;;;;;6.55;2.40;;;;;;;10.71;48.10;94822.13;5108182;28;20072;-77
2023/12/12 09:39:35;;;;;;;6.75;2.50;;;;;;;10.90;47.98;94828.63;5109147;28;20035;-77
2023/12/12 09:42:00;;;;;;;6.03;2.40;;;;;;;11.09;47.79;94826.84;5107988;27;20106;-76
2023/12/12 09:44:30;;;;;;;4.50;1.95;;;;;;;11.34;47.07;94818.50;5107956;28;20028;-77
2023/12/12 09:46:57;;;;;;;3.83;2.30;;;;;;;11.44;46.83;94814.63;5107820;28;20047;-77
2023/12/12 09:49:23;;;;;;;9.00;2.72;;;;;;;11.62;46.21;94810.50;5108757;27;20035;-76
2023/12/12 09:51:51;;;;;;;6.60;2.50;;;;;;;11.77;45.88;94805.28;5108581;28;20024;-76
2023/12/12 09:54:17;;;;;;;5.63;2.40;;;;;;;11.83;46.29;94809.78;5108098;28;20081;-77
2023/12/12 09:56:44;;;;;;;3.08;2.05;;;;;;;12.39;44.86;94808.94;5108795;28;20028;-77
2023/12/12 09:59:10;;;;;;;3.70;2.20;;;;;;;12.61;44.29;94803.34;5089023;28;20144;-75
2023/12/12 10:01:35;;;;;;;5.38;2.40;;;;;;;13.28;42.99;94812.94;5108711;28;20041;-77
2023/12/12 10:04:05;;;;;;;2.53;1.40;;;;;;;13.39;43.15;94806.97;5107095;28;20039;-77
2023/12/12 10:06:35;;;;;;;3.78;2.00;;;;;;;14.63;40.78;94802.75;5107273;28;20024;-76
2023/12/12 10:09:00;;;;;;;3.85;2.42;;;;;;;15.48;39.02;94798.59;5108243;28;20024;-77
2023/12/12 10:11:26;;;;;;;6.13;2.17;;;;;;;16.59;37.10;94796.41;5107726;28;20026;-76
2023/12/12 10:13:56;;;;;;;8.60;2.13;;;;;;;16.75;36.22;94794.44;5108688;28;20040;-78
2023/12/12 10:16:22;;;;;;;4.68;2.10;;;;;;;16.51;36.86;94797.25;5107363;28;20031;-77
2023/12/12 10:18:47;;;;;;;4.45;2.50;;;;;;;16.51;36.40;94795.25;5108729;28;20020;-76
2023/12/12 10:21:17;;;;;;;7.80;3.28;;;;;;;16.39;36.76;94810.19;5107394;28;20028;-77
2023/12/12 10:23:46;;;;;;;5.05;2.95;;;;;;;16.16;36.63;94809.78;5106888;28;20086;-77
2023/12/12 10:26:15;;;;;;;6.30;3.72;;;;;;;16.01;37.01;94828.41;5106391;28;20045;-77
2023/12/12 10:28:41;;;;;;;8.38;2.42;;;;;;;15.79;36.95;94820.44;5107346;28;20034;-77
2023/12/12 10:31:07;;;;;;;5.55;1.85;;;;;;;15.57;37.45;94829.00;5108310;27;20050;-76
2023/12/12 10:33:34;;;;;;;5.38;2.20;;;;;;;15.44;37.74;94822.19;5106937;28;20028;-77
2023/12/12 10:36:03;;;;;;;3.72;2.15;;;;;;;15.84;37.34;94821.78;5108206;28;20024;-78
2023/12/12 10:38:30;;;;;;;7.22;2.95;;;;;;;15.90;36.97;94804.00;5105395;28;20074;-76
2023/12/12 10:41:09;;;;;;;7.75;3.92;;;;;;;16.65;35.94;94816.69;5108198;28;20020;-77
2023/12/12 10:43:36;;;;;;;7.68;4.28;;;;;;;16.81;35.39;94807.16;5106377;28;20027;-76
2023/12/12 10:46:02;;;;;;;7.00;3.72;;;;;;;16.50;35.55;94813.16;5107529;28;20070;-76
2023/12/12 10:48:27;;;;;;;8.52;4.25;;;;;;;16.46;35.76;94815.38;5106628;28;20414;-76
2023/12/12 10:50:55;;;;;;;15.63;4.70;;;;;;;16.16;35.95;94825.66;5104876;28;20324;-76
2023/12/12 10:53:22;;;;;;;11.52;3.35;;;;;;;15.84;36.89;94843.94;5108637;28;20039;-77
2023/12/12 10:55:49;;;;;;;5.78;3.17;;;;;;;15.63;37.56;94831.94;5106430;28;20027;-77
2023/12/12 10:58:15;;;;;;;10.25;3.08;;;;;;;15.36;37.87;94832.81;5106423;28;20192;-78
2023/12/12 11:00:41;;;;;;;5.30;2.72;;;;;;;15.03;38.39;94825.34;5105527;28;20047;-78
2023/12/12 11:03:09;;;;;;;6.60;3.33;;;;;;;14.80;38.84;94812.97;5105767;28;20500;-78
2023/12/12 11:05:35;;;;;;;7.00;3.40;;;;;;;14.72;39.11;94833.13;5106270;28;20031;-78
2023/12/12 11:08:03;;;;;;;6.22;3.25;;;;;;;14.52;39.56;94820.59;5105876;28;20107;-79
2023/12/12 11:10:29;;;;;;;6.55;3.30;;;;;;;14.51;39.78;94829.38;5107771;28;20091;-77
2023/12/12 11:12:59;;;;;;;11.77;3.08;;;;;;;14.43;39.98;94817.03;5105758;28;20131;-78
2023/12/12 11:15:25;;;;;;;8.77;3.70;;;;;;;14.29;40.35;94824.00;5107280;28;20041;-77
2023/12/12 11:17:52;;;;;;;10.70;3.70;;;;;;;14.16;40.78;94828.91;5104803;28;20027;-76
2023/12/12 11:20:18;;;;;;;8.00;3.67;;;;;;;13.98;41.19;94824.94;5106556;28;20495;-78